Elsenham, United Kingdom
Current Conditions -  °F | °C
As of 9:50 AM on Sunday 23 Nov 2014 (Local Time) from EGSS Reporting Station
Light Rain Light Rain  
Wind Chill: 41°   Ceiling: 400
Heat Index: 46°   Visibility: 3mi
Dew Point: 46°   Wind: 10mph
Humidity: 100%   Direction: 340°NNW
Pressure: 30"   Gusts: NA
Location:  51.91°N, 0.23°E
Report Text: EGSS 230950Z 34009KT 5000 -RA BKN004 OVC007 08/08 Q1016
Loading
Personal Weather Stations






























Interactive Weather Map New forecast layout! Learn more

10-Day Weather Forecast

Advertisements
Track Severe Weather on mobile